createdAt,value
2019-04-29T00:00:33.379Z,2.60
2019-04-29T00:01:33.374Z,2.70
2019-04-29T00:02:33.370Z,2.50
2019-04-29T00:03:33.366Z,2.50
2019-04-29T00:04:33.336Z,2.60
2019-04-29T00:05:33.327Z,2.70
2019-04-29T00:06:33.337Z,2.50
2019-04-29T00:07:33.308Z,2.70
2019-04-29T00:08:33.315Z,2.70
2019-04-29T00:09:33.290Z,2.40
2019-04-29T00:10:33.274Z,2.60
2019-04-29T00:11:33.265Z,2.50
2019-04-29T00:12:33.263Z,2.70
2019-04-29T00:13:33.270Z,3.10
2019-04-29T00:14:33.244Z,2.80
2019-04-29T00:15:33.233Z,2.40
2019-04-29T00:16:33.219Z,2.80
2019-04-29T00:17:33.201Z,2.70
2019-04-29T00:18:33.195Z,2.60
2019-04-29T00:19:36.091Z,2.70
2019-04-29T00:20:33.177Z,2.70
2019-04-29T00:21:33.158Z,2.60
2019-04-29T00:22:33.150Z,2.90
2019-04-29T00:23:33.162Z,2.90
2019-04-29T00:24:33.146Z,2.90
2019-04-29T00:25:33.114Z,2.90
2019-04-29T00:26:46.168Z,3.10
2019-04-29T00:27:33.185Z,3.10
2019-04-29T00:28:33.098Z,3.20
2019-04-29T00:29:33.138Z,3.40
2019-04-29T00:30:33.070Z,2.90
2019-04-29T00:31:33.071Z,3.00
2019-04-29T00:32:33.051Z,3.30
2019-04-29T00:33:33.054Z,3.00
2019-04-29T00:34:33.173Z,2.70
2019-04-29T00:35:33.042Z,3.10
2019-04-29T00:36:33.084Z,3.30
2019-04-29T00:37:33.064Z,3.10
2019-04-29T00:38:33.060Z,3.10
2019-04-29T00:39:33.225Z,3.10
2019-04-29T00:40:33.014Z,2.80
2019-04-29T00:41:33.065Z,2.70
2019-04-29T00:42:33.055Z,2.90
2019-04-29T00:43:33.044Z,2.80
2019-04-29T00:44:33.076Z,2.80
2019-04-29T00:45:32.980Z,2.80
2019-04-29T00:46:33.035Z,2.90
2019-04-29T00:47:32.965Z,3.00
2019-04-29T00:48:32.932Z,2.90
2019-04-29T00:49:33.064Z,2.80
2019-04-29T00:50:32.999Z,2.90
2019-04-29T00:51:32.940Z,2.50
2019-04-29T00:52:32.912Z,2.60
2019-04-29T00:53:32.855Z,2.80
2019-04-29T00:54:33.006Z,2.90
2019-04-29T00:55:32.949Z,2.60
2019-04-29T00:56:32.868Z,2.60
2019-04-29T00:57:32.874Z,2.40
2019-04-29T00:58:32.829Z,2.50
2019-04-29T00:59:32.885Z,2.70
2019-04-29T01:00:32.821Z,2.80
2019-04-29T01:01:32.845Z,2.90
2019-04-29T01:02:32.809Z,2.50
2019-04-29T01:03:32.951Z,2.50
2019-04-29T01:04:32.860Z,2.50
2019-04-29T01:05:32.734Z,2.50
2019-04-29T01:06:32.788Z,2.50
2019-04-29T01:07:32.781Z,2.40
2019-04-29T01:08:32.703Z,2.80
2019-04-29T01:09:32.811Z,2.90
2019-04-29T01:10:32.761Z,2.60
2019-04-29T01:11:32.725Z,2.20
2019-04-29T01:12:32.768Z,2.50
2019-04-29T01:13:32.765Z,2.50
2019-04-29T01:14:32.767Z,2.60
2019-04-29T01:15:32.750Z,2.40
2019-04-29T01:16:32.644Z,2.50
2019-04-29T01:17:32.678Z,2.30
2019-04-29T01:18:32.714Z,2.70
2019-04-29T01:19:32.637Z,2.30
2019-04-29T01:20:32.627Z,2.40
2019-04-29T01:21:32.559Z,2.50
2019-04-29T01:22:32.590Z,2.30
2019-04-29T01:23:32.602Z,2.30
2019-04-29T01:24:32.675Z,2.40
2019-04-29T01:25:32.684Z,2.30
2019-04-29T01:26:32.586Z,2.40
2019-04-29T01:27:32.476Z,2.10
2019-04-29T01:28:32.522Z,2.40
2019-04-29T01:29:32.617Z,2.40
2019-04-29T01:30:32.524Z,2.60
2019-04-29T01:31:32.643Z,2.30
2019-04-29T01:32:32.468Z,2.20
2019-04-29T01:33:32.454Z,2.30
2019-04-29T01:34:32.522Z,2.40
2019-04-29T01:35:32.472Z,2.30
2019-04-29T01:36:32.471Z,2.40
2019-04-29T01:37:32.617Z,2.40
2019-04-29T01:38:32.457Z,2.40
2019-04-29T01:39:32.482Z,2.40
2019-04-29T01:40:32.432Z,2.50
2019-04-29T01:41:32.438Z,2.40
2019-04-29T01:42:32.373Z,2.30
2019-04-29T01:43:32.405Z,2.30
2019-04-29T01:44:32.552Z,2.20
2019-04-29T01:45:32.347Z,2.10
2019-04-29T01:46:32.344Z,2.60
2019-04-29T01:47:32.374Z,2.40
2019-04-29T01:48:32.361Z,2.50
2019-04-29T01:49:32.394Z,2.30
2019-04-29T01:50:32.412Z,2.30
2019-04-29T01:51:32.304Z,2.80
2019-04-29T01:52:32.296Z,2.30
2019-04-29T01:53:32.228Z,2.40
2019-04-29T01:54:32.333Z,2.20
2019-04-29T01:55:32.235Z,2.30
2019-04-29T01:56:32.305Z,2.40
2019-04-29T01:57:32.230Z,2.30
2019-04-29T01:58:32.294Z,2.40
2019-04-29T01:59:32.355Z,2.30
2019-04-29T02:00:32.186Z,2.20
2019-04-29T02:01:32.197Z,2.30
2019-04-29T02:02:32.208Z,2.20
2019-04-29T02:03:32.270Z,2.50
2019-04-29T02:04:32.239Z,2.50
2019-04-29T02:05:32.262Z,2.60
2019-04-29T02:06:32.251Z,2.60
2019-04-29T02:07:32.117Z,2.30
2019-04-29T02:08:32.123Z,2.30
2019-04-29T02:09:32.135Z,2.50
2019-04-29T02:10:32.174Z,2.30
2019-04-29T02:11:32.075Z,2.30
2019-04-29T02:12:32.104Z,2.30
2019-04-29T02:13:32.059Z,2.60
2019-04-29T02:14:32.097Z,2.60
2019-04-29T02:15:32.046Z,2.40
2019-04-29T02:16:32.026Z,2.40
2019-04-29T02:17:31.979Z,2.60
2019-04-29T02:18:32.020Z,2.40
2019-04-29T02:19:32.054Z,2.80
2019-04-29T02:20:32.037Z,2.70
2019-04-29T02:21:31.989Z,2.70
2019-04-29T02:22:32.097Z,2.80
2019-04-29T02:23:32.029Z,2.60
2019-04-29T02:24:32.003Z,2.60
2019-04-29T02:25:32.745Z,2.60
2019-04-29T02:26:31.960Z,2.60
2019-04-29T02:27:31.990Z,2.60
2019-04-29T02:28:32.107Z,2.60
2019-04-29T02:29:31.907Z,2.70
2019-04-29T02:30:31.930Z,2.50
2019-04-29T02:31:31.895Z,2.40
2019-04-29T02:32:32.053Z,2.70
2019-04-29T02:33:31.809Z,2.60
2019-04-29T02:34:31.845Z,2.60
2019-04-29T02:35:33.058Z,2.60
2019-04-29T02:36:31.803Z,2.70
2019-04-29T02:37:31.868Z,2.80
2019-04-29T02:38:31.826Z,2.80
2019-04-29T02:39:31.818Z,2.50
2019-04-29T02:40:31.843Z,2.60
2019-04-29T02:41:31.790Z,2.50
2019-04-29T02:42:31.793Z,2.60
2019-04-29T02:43:31.734Z,2.30
2019-04-29T02:44:31.669Z,2.80
2019-04-29T02:45:33.317Z,2.40
2019-04-29T02:46:31.681Z,2.50
2019-04-29T02:47:31.830Z,2.30
2019-04-29T02:48:34.495Z,2.40
2019-04-29T02:49:31.680Z,2.50
2019-04-29T02:50:31.715Z,2.20
2019-04-29T02:51:31.711Z,2.40
2019-04-29T02:52:31.733Z,2.50
2019-04-29T02:53:31.686Z,2.40
2019-04-29T02:54:31.896Z,2.30
2019-04-29T02:55:31.725Z,2.20
2019-04-29T02:56:31.606Z,2.30
2019-04-29T02:57:31.642Z,2.30
2019-04-29T02:58:31.735Z,2.40
2019-04-29T02:59:31.581Z,2.30
2019-04-29T03:00:31.566Z,2.60
2019-04-29T03:01:31.580Z,2.50
2019-04-29T03:02:31.641Z,2.30
2019-04-29T03:03:31.522Z,2.70
2019-04-29T03:04:31.575Z,2.70
2019-04-29T03:05:31.575Z,2.60
2019-04-29T03:06:31.563Z,2.20
2019-04-29T03:07:31.419Z,2.60
2019-04-29T03:08:31.540Z,2.40
2019-04-29T03:09:31.491Z,2.50
2019-04-29T03:10:31.528Z,2.60
2019-04-29T03:11:31.466Z,2.60
2019-04-29T03:12:31.418Z,2.50
2019-04-29T03:13:31.517Z,2.40
2019-04-29T03:14:31.469Z,2.30
2019-04-29T03:15:31.455Z,2.30
2019-04-29T03:16:31.491Z,2.50
2019-04-29T03:17:31.527Z,2.30
2019-04-29T03:18:31.382Z,2.70
2019-04-29T03:19:31.583Z,2.60
2019-04-29T03:20:31.424Z,2.80
2019-04-29T03:21:31.426Z,2.60
2019-04-29T03:22:31.313Z,2.70
2019-04-29T03:23:31.325Z,2.40
2019-04-29T03:24:31.316Z,2.50
2019-04-29T03:25:31.400Z,2.60
2019-04-29T03:26:31.426Z,2.40
2019-04-29T03:27:31.475Z,2.50
2019-04-29T03:28:31.386Z,2.50
2019-04-29T03:29:31.247Z,2.60
2019-04-29T03:30:31.334Z,2.80
2019-04-29T03:31:38.383Z,2.90
2019-04-29T03:32:32.318Z,2.60
2019-04-29T03:33:31.256Z,3.00
2019-04-29T03:34:31.304Z,2.70
2019-04-29T03:35:31.179Z,2.80
2019-04-29T03:36:31.517Z,3.00
2019-04-29T03:37:31.419Z,2.70
2019-04-29T03:38:31.234Z,2.60
2019-04-29T03:39:31.122Z,2.80
2019-04-29T03:40:31.172Z,3.00
2019-04-29T03:41:31.156Z,2.90
2019-04-29T03:42:31.204Z,2.70
2019-04-29T03:43:31.150Z,2.70
2019-04-29T03:44:31.286Z,2.50
2019-04-29T03:45:31.071Z,2.80
2019-04-29T03:46:31.208Z,2.50
2019-04-29T03:47:31.253Z,2.60
2019-04-29T03:48:31.130Z,2.80
2019-04-29T03:49:31.027Z,3.20
2019-04-29T03:50:31.130Z,3.00
2019-04-29T03:51:31.161Z,2.90
2019-04-29T03:52:39.560Z,2.80
2019-04-29T03:53:31.139Z,2.90
2019-04-29T03:58:03.767Z,2.70
2019-04-29T03:59:10.470Z,2.80
2019-04-29T04:00:02.914Z,2.80
2019-04-29T04:01:10.432Z,2.80
2019-04-29T04:02:02.916Z,2.70
2019-04-29T04:03:10.424Z,2.80
2019-04-29T04:04:02.855Z,3.00
2019-04-29T04:05:02.877Z,2.70
2019-04-29T04:06:02.815Z,2.80
2019-04-29T04:07:04.145Z,2.80
2019-04-29T04:09:23.384Z,3.00
2019-04-29T04:10:23.188Z,2.90
2019-04-29T04:11:23.165Z,2.70
2019-04-29T04:12:23.189Z,2.90
2019-04-29T04:13:23.130Z,3.00
2019-04-29T04:14:23.131Z,3.10
2019-04-29T04:15:23.086Z,3.10
2019-04-29T04:16:23.089Z,2.90
2019-04-29T04:17:23.076Z,2.90
2019-04-29T04:18:23.051Z,2.90
2019-04-29T04:19:23.030Z,3.00
2019-04-29T04:20:23.017Z,2.90
2019-04-29T04:21:30.697Z,3.00
2019-04-29T04:22:23.396Z,2.70
2019-04-29T04:23:31.639Z,2.70
2019-04-29T04:24:23.033Z,2.60
2019-04-29T04:25:23.047Z,2.70
2019-04-29T04:26:30.617Z,2.30
2019-04-29T04:27:23.000Z,2.50
2019-04-29T04:28:30.587Z,2.30
2019-04-29T04:29:22.967Z,2.80
2019-04-29T04:31:32.935Z,2.40
2019-04-29T04:32:40.342Z,2.10
2019-04-29T04:33:32.717Z,2.10
2019-04-29T04:34:32.712Z,2.00
2019-04-29T04:35:32.750Z,2.10
2019-04-29T04:36:32.722Z,2.30
2019-04-29T04:37:32.668Z,2.30
2019-04-29T04:38:32.636Z,2.10
2019-04-29T04:39:32.618Z,2.40
2019-04-29T04:40:32.621Z,2.30
2019-04-29T04:41:32.618Z,2.70
2019-04-29T04:42:32.637Z,2.90
2019-04-29T04:43:32.608Z,2.60
2019-04-29T04:45:43.591Z,2.60
2019-04-29T04:47:54.368Z,3.00
2019-04-29T04:48:54.232Z,2.70
2019-04-29T04:50:01.844Z,2.70
2019-04-29T04:50:54.221Z,2.90
2019-04-29T04:51:54.209Z,2.90
2019-04-29T04:52:54.260Z,2.60
2019-04-29T04:53:54.179Z,3.00
2019-04-29T04:54:54.165Z,3.10
2019-04-29T04:55:54.323Z,2.90
2019-04-29T04:56:54.153Z,2.60
2019-04-29T04:57:54.159Z,2.80
2019-04-29T04:58:54.134Z,2.50
2019-04-29T04:59:54.120Z,2.70
2019-04-29T05:00:54.121Z,2.90
2019-04-29T05:02:01.729Z,2.70
2019-04-29T05:02:54.114Z,2.80
2019-04-29T05:03:54.060Z,2.70
2019-04-29T05:05:01.715Z,3.10
2019-04-29T05:05:54.060Z,3.10
2019-04-29T05:07:01.690Z,3.40
2019-04-29T05:07:54.121Z,3.20
2019-04-29T05:08:54.075Z,3.00
2019-04-29T05:10:01.650Z,3.30
2019-04-29T05:10:54.043Z,3.30
2019-04-29T05:11:54.062Z,3.80
2019-04-29T05:12:53.980Z,3.40
2019-04-29T05:13:54.041Z,3.30
2019-04-29T05:15:01.591Z,3.50
2019-04-29T05:15:53.977Z,3.40
2019-04-29T05:17:01.577Z,3.70
2019-04-29T05:17:53.944Z,3.70
2019-04-29T05:19:01.616Z,3.70
2019-04-29T05:19:53.922Z,3.70
2019-04-29T05:20:53.979Z,3.50
2019-04-29T05:22:01.565Z,3.50
2019-04-29T05:22:53.916Z,3.40
2019-04-29T05:24:01.560Z,3.50
2019-04-29T05:24:53.860Z,3.30
2019-04-29T05:26:01.480Z,3.30
2019-04-29T05:26:53.856Z,3.10
2019-04-29T05:27:53.869Z,3.60
2019-04-29T05:29:01.459Z,3.40
2019-04-29T05:29:53.836Z,3.20
2019-04-29T05:30:53.815Z,2.70
2019-04-29T05:32:01.427Z,3.00
2019-04-29T05:32:53.789Z,2.90
2019-04-29T05:34:01.434Z,3.30
2019-04-29T05:34:55.092Z,3.90
2019-04-29T05:35:56.651Z,3.70
2019-04-29T05:38:03.576Z,4.00
2019-04-29T05:39:11.106Z,4.20
2019-04-29T05:40:03.454Z,3.60
2019-04-29T05:41:11.088Z,3.40
2019-04-29T05:42:07.697Z,3.20
2019-04-29T05:43:05.138Z,2.90
2019-04-29T05:44:03.381Z,4.60
2019-04-29T05:45:03.386Z,3.90
2019-04-29T05:46:10.998Z,4.40
2019-04-29T05:47:03.372Z,5.50
2019-04-29T05:48:11.017Z,6.10
2019-04-29T05:49:07.322Z,4.40
2019-04-29T05:51:14.208Z,7.20
2019-04-29T05:52:14.112Z,7.30
2019-04-29T05:53:21.662Z,6.20
2019-04-29T05:54:14.044Z,7.50
2019-04-29T05:55:21.671Z,8.10
2019-04-29T05:56:14.098Z,8.50
2019-04-29T05:57:25.333Z,7.10
2019-04-29T05:58:14.895Z,8.20
2019-04-29T05:59:14.032Z,8.70
2019-04-29T06:00:23.262Z,7.00
2019-04-29T06:01:13.986Z,8.60
2019-04-29T06:02:24.041Z,9.30
2019-04-29T06:03:14.989Z,8.10
2019-04-29T06:04:21.570Z,7.60
2019-04-29T06:05:13.952Z,7.90
2019-04-29T06:06:21.554Z,8.90
2019-04-29T06:07:16.881Z,8.10
2019-04-29T06:09:23.748Z,8.10
2019-04-29T06:10:31.265Z,8.10
2019-04-29T06:11:23.625Z,8.60
2019-04-29T06:12:31.272Z,8.70
2019-04-29T06:13:23.612Z,8.40
2019-04-29T06:14:31.234Z,8.80
2019-04-29T06:15:23.608Z,8.70
2019-04-29T06:16:23.566Z,9.80
2019-04-29T06:17:31.163Z,9.90
2019-04-29T06:18:23.864Z,9.80
2019-04-29T06:19:31.204Z,10.60
2019-04-29T06:20:23.600Z,11.00
2019-04-29T06:21:31.165Z,10.70
2019-04-29T06:22:23.518Z,10.40
2019-04-29T06:23:32.252Z,9.90
2019-04-29T06:24:23.489Z,10.20
2019-04-29T06:25:31.148Z,10.50
2019-04-29T06:26:23.495Z,10.10
2019-04-29T06:27:33.330Z,10.20
2019-04-29T06:28:26.535Z,10.00
2019-04-29T06:29:23.418Z,11.40
2019-04-29T06:30:23.442Z,11.10
2019-04-29T06:31:23.413Z,11.00
2019-04-29T06:32:24.960Z,10.20
2019-04-29T06:33:24.140Z,10.10
2019-04-29T06:34:24.388Z,10.10
2019-04-29T06:35:23.414Z,10.60
2019-04-29T06:36:23.340Z,10.10
2019-04-29T06:37:23.368Z,10.20
2019-04-29T06:38:23.344Z,9.60
2019-04-29T06:39:23.323Z,8.80
2019-04-29T06:40:23.299Z,8.70
2019-04-29T06:41:23.308Z,8.70
2019-04-29T06:42:23.278Z,8.50
2019-04-29T06:43:24.657Z,8.80
2019-04-29T06:44:24.259Z,8.60
2019-04-29T06:45:23.271Z,8.80
2019-04-29T06:46:23.275Z,8.10
2019-04-29T06:47:23.228Z,8.00
2019-04-29T06:48:23.242Z,6.70
2019-04-29T06:49:23.212Z,7.60
2019-04-29T06:50:23.193Z,8.40
2019-04-29T06:51:23.207Z,8.40
2019-04-29T06:52:23.218Z,8.20
2019-04-29T06:53:23.346Z,8.80
2019-04-29T06:54:23.153Z,9.10
2019-04-29T06:55:23.145Z,8.90
2019-04-29T06:56:23.153Z,9.20
2019-04-29T06:57:23.127Z,10.00
2019-04-29T06:58:23.110Z,9.00
2019-04-29T06:59:23.100Z,10.60
2019-04-29T07:00:24.027Z,10.90
2019-04-29T07:01:23.105Z,10.20
2019-04-29T07:02:23.074Z,9.50
2019-04-29T07:03:25.430Z,9.80
2019-04-29T07:04:23.044Z,10.20
2019-04-29T07:05:23.053Z,10.70
2019-04-29T07:06:23.051Z,10.40
2019-04-29T07:07:23.030Z,9.70
2019-04-29T07:08:23.000Z,9.20
2019-04-29T07:09:22.991Z,10.40
2019-04-29T07:10:26.867Z,10.60
2019-04-29T07:11:23.043Z,10.20
2019-04-29T07:12:22.956Z,9.10
2019-04-29T07:13:24.547Z,10.70
2019-04-29T07:14:22.938Z,9.60
2019-04-29T07:15:22.954Z,10.60
2019-04-29T07:16:26.854Z,9.10
2019-04-29T07:17:23.906Z,10.70
2019-04-29T07:18:22.897Z,10.80
2019-04-29T07:19:26.609Z,11.40
2019-04-29T07:20:23.876Z,11.60
2019-04-29T07:21:22.903Z,10.60
2019-04-29T07:22:25.883Z,9.60
2019-04-29T07:23:22.842Z,11.50
2019-04-29T07:24:22.890Z,11.60
2019-04-29T07:25:24.723Z,11.40
2019-04-29T07:26:23.833Z,11.20
2019-04-29T07:27:22.795Z,11.60
2019-04-29T07:28:22.792Z,11.30
2019-04-29T07:29:29.710Z,11.80
2019-04-29T07:30:23.763Z,11.60
2019-04-29T07:31:22.751Z,11.40
2019-04-29T07:32:22.764Z,11.50
2019-04-29T07:33:24.532Z,11.90
2019-04-29T07:34:22.737Z,11.90
2019-04-29T07:35:22.752Z,12.30
2019-04-29T07:36:23.809Z,12.10
2019-04-29T07:37:22.748Z,11.70
2019-04-29T07:38:22.677Z,12.00
2019-04-29T07:39:26.736Z,10.80
2019-04-29T07:40:23.673Z,11.00
2019-04-29T07:41:22.657Z,11.60
2019-04-29T07:42:25.033Z,12.10
2019-04-29T07:43:23.636Z,12.30
2019-04-29T07:44:22.643Z,12.40
2019-04-29T07:45:23.787Z,11.80
2019-04-29T07:46:22.616Z,12.30
2019-04-29T07:47:24.879Z,11.00
2019-04-29T07:48:23.570Z,10.10
2019-04-29T07:49:22.560Z,10.80
2019-04-29T07:50:26.790Z,11.90
2019-04-29T07:51:23.560Z,11.80
2019-04-29T07:52:22.546Z,11.90
2019-04-29T07:53:34.997Z,11.20
2019-04-29T07:54:23.512Z,11.40
2019-04-29T07:55:26.111Z,10.30
2019-04-29T07:56:23.482Z,11.60
2019-04-29T07:57:22.492Z,11.50
2019-04-29T07:58:23.065Z,11.90
2019-04-29T07:59:22.455Z,11.40
2019-04-29T08:00:22.444Z,10.20
2019-04-29T08:01:24.416Z,11.30
2019-04-29T08:02:22.439Z,11.50
2019-04-29T08:03:22.407Z,12.10
2019-04-29T08:04:22.397Z,11.40
2019-04-29T08:05:22.386Z,11.30
2019-04-29T08:06:22.374Z,11.60
2019-04-29T08:07:22.404Z,11.40
2019-04-29T08:08:22.829Z,11.30
2019-04-29T08:09:22.342Z,11.40
2019-04-29T08:10:23.524Z,11.10
2019-04-29T08:11:22.322Z,11.00
2019-04-29T08:12:22.314Z,11.40
2019-04-29T08:13:22.318Z,9.40
2019-04-29T08:14:22.297Z,12.00
2019-04-29T08:15:22.279Z,12.60
2019-04-29T08:16:22.267Z,12.40
2019-04-29T08:17:22.262Z,12.40
2019-04-29T08:18:22.311Z,12.90
2019-04-29T08:19:24.730Z,12.90
2019-04-29T08:20:23.223Z,12.40
2019-04-29T08:21:22.222Z,12.60
2019-04-29T08:22:22.917Z,12.80
2019-04-29T08:23:23.211Z,13.20
2019-04-29T08:24:22.182Z,11.60
2019-04-29T08:25:25.969Z,12.20
2019-04-29T08:26:22.178Z,13.00
2019-04-29T08:27:22.150Z,12.00
2019-04-29T08:28:22.159Z,12.40
2019-04-29T08:29:22.137Z,13.90
2019-04-29T08:30:22.118Z,13.30
2019-04-29T08:31:22.273Z,13.00
2019-04-29T08:32:22.095Z,13.30
2019-04-29T08:33:22.102Z,13.00
2019-04-29T08:34:23.106Z,13.50
2019-04-29T08:35:22.075Z,14.40
2019-04-29T08:36:22.053Z,16.60
2019-04-29T08:37:24.824Z,10.90
2019-04-29T08:38:22.049Z,14.40
2019-04-29T08:39:25.096Z,14.70
2019-04-29T08:40:23.011Z,15.40
2019-04-29T08:41:28.473Z,15.50
2019-04-29T08:42:22.992Z,17.00
2019-04-29T08:43:22.378Z,18.60
2019-04-29T08:44:21.977Z,16.50
2019-04-29T08:45:21.956Z,18.60
2019-04-29T08:46:21.944Z,16.90
2019-04-29T08:47:22.934Z,16.60
2019-04-29T08:48:22.944Z,16.60
2019-04-29T08:49:21.922Z,16.00
2019-04-29T08:50:21.907Z,16.50
2019-04-29T08:51:21.894Z,16.80
2019-04-29T08:52:21.886Z,17.10
2019-04-29T08:53:21.871Z,16.20
2019-04-29T08:54:21.890Z,16.80
2019-04-29T08:55:21.846Z,15.10
2019-04-29T08:56:21.838Z,15.40
2019-04-29T08:57:21.826Z,14.50
2019-04-29T08:58:21.827Z,14.60
2019-04-29T08:59:24.397Z,15.30
2019-04-29T09:00:21.799Z,14.30
2019-04-29T09:01:24.469Z,15.20
2019-04-29T09:02:33.472Z,15.30
2019-04-29T09:03:23.404Z,14.40
2019-04-29T09:04:21.771Z,14.80
2019-04-29T09:05:21.740Z,15.30
2019-04-29T09:06:21.729Z,14.10
2019-04-29T09:07:22.367Z,14.90
2019-04-29T09:08:21.735Z,14.90
2019-04-29T09:09:29.343Z,14.50
2019-04-29T09:10:22.684Z,15.50
2019-04-29T09:11:21.672Z,14.40
2019-04-29T09:12:24.201Z,15.40
2019-04-29T09:13:22.650Z,14.80
2019-04-29T09:14:21.659Z,13.60
2019-04-29T09:15:21.632Z,14.20
2019-04-29T09:16:21.653Z,14.70
2019-04-29T09:17:21.609Z,15.60
2019-04-29T09:18:21.598Z,15.70
2019-04-29T09:19:21.605Z,16.10
2019-04-29T09:20:21.574Z,16.10
2019-04-29T09:21:21.567Z,17.70
2019-04-29T09:22:21.552Z,17.30
2019-04-29T09:23:21.542Z,15.20
2019-04-29T09:24:21.555Z,18.50
2019-04-29T09:25:26.300Z,17.70
2019-04-29T09:26:24.435Z,16.80
2019-04-29T09:27:21.501Z,16.80
2019-04-29T09:28:27.009Z,17.70
2019-04-29T09:29:22.495Z,16.30
2019-04-29T09:30:21.478Z,15.80
2019-04-29T09:31:21.455Z,16.10
2019-04-29T09:32:21.443Z,17.80
2019-04-29T09:33:21.433Z,17.60
2019-04-29T09:34:24.747Z,18.10
2019-04-29T09:35:21.421Z,18.20
2019-04-29T09:36:21.410Z,19.30
2019-04-29T09:37:22.943Z,16.60
2019-04-29T09:38:21.378Z,17.10
2019-04-29T09:39:21.504Z,16.80
2019-04-29T09:40:21.357Z,17.30
2019-04-29T09:41:21.348Z,17.30
2019-04-29T09:42:21.336Z,16.70
2019-04-29T09:43:25.630Z,17.30
2019-04-29T09:44:21.340Z,16.50
2019-04-29T09:45:24.341Z,16.20
2019-04-29T09:46:21.293Z,14.40
2019-04-29T09:47:21.282Z,14.90
2019-04-29T09:48:21.272Z,14.60
2019-04-29T09:49:21.300Z,15.50
2019-04-29T09:50:21.248Z,15.20
2019-04-29T09:51:22.681Z,14.60
2019-04-29T09:52:22.227Z,16.00
2019-04-29T09:53:21.221Z,16.40
2019-04-29T09:54:21.205Z,16.30
2019-04-29T09:55:21.216Z,16.20
2019-04-29T09:56:21.184Z,17.20
2019-04-29T09:57:21.173Z,16.60
2019-04-29T09:58:21.162Z,15.70
2019-04-29T09:59:21.151Z,16.00
2019-04-29T10:00:21.159Z,16.60
2019-04-29T10:01:21.187Z,16.50
2019-04-29T10:02:21.126Z,17.30
2019-04-29T10:03:21.109Z,18.20
2019-04-29T10:04:21.097Z,17.10
2019-04-29T10:05:21.108Z,17.70
2019-04-29T10:06:21.076Z,17.40
2019-04-29T10:07:21.065Z,17.20
2019-04-29T10:08:21.053Z,16.30
2019-04-29T10:09:21.044Z,17.80
2019-04-29T10:10:21.055Z,16.90
2019-04-29T10:11:21.038Z,16.80
2019-04-29T10:12:21.017Z,16.00
2019-04-29T10:13:21.001Z,16.20
2019-04-29T10:14:21.002Z,16.30
2019-04-29T10:15:21.024Z,15.40
2019-04-29T10:16:20.970Z,15.60
2019-04-29T10:17:20.957Z,16.20
2019-04-29T10:18:25.042Z,14.90
2019-04-29T10:19:21.934Z,14.80
2019-04-29T10:20:20.955Z,15.70
2019-04-29T10:21:21.364Z,15.50
2019-04-29T10:22:20.906Z,14.90
2019-04-29T10:23:20.894Z,14.70
2019-04-29T10:24:20.880Z,13.30
2019-04-29T10:25:20.870Z,14.70
2019-04-29T10:26:20.891Z,15.00
2019-04-29T10:27:20.847Z,14.20
2019-04-29T10:28:20.838Z,14.00
2019-04-29T10:29:20.842Z,13.40
2019-04-29T10:30:20.837Z,13.40
2019-04-29T10:31:20.822Z,14.70
2019-04-29T10:32:20.794Z,15.60
2019-04-29T10:33:23.023Z,13.30
2019-04-29T10:34:20.772Z,15.20
2019-04-29T10:35:20.761Z,15.60
2019-04-29T10:36:21.859Z,16.70
2019-04-29T10:37:23.739Z,16.10
2019-04-29T10:38:21.738Z,16.20
2019-04-29T10:39:22.623Z,17.30
2019-04-29T10:40:20.707Z,17.10
2019-04-29T10:41:21.243Z,17.60
2019-04-29T10:42:22.893Z,17.00
2019-04-29T10:43:20.675Z,16.50
2019-04-29T10:44:20.670Z,17.20
2019-04-29T10:45:20.653Z,17.00
2019-04-29T10:46:20.663Z,18.20
2019-04-29T10:47:20.654Z,17.20
2019-04-29T10:48:20.622Z,17.80
2019-04-29T10:49:20.609Z,16.60
2019-04-29T10:50:23.714Z,18.40
2019-04-29T10:51:23.345Z,16.90
2019-04-29T10:52:21.578Z,16.70
2019-04-29T10:53:20.568Z,16.10
2019-04-29T10:54:20.557Z,15.80
2019-04-29T10:55:20.549Z,15.10
2019-04-29T10:56:20.562Z,15.00
2019-04-29T10:57:20.535Z,14.70
2019-04-29T10:58:22.003Z,15.20
2019-04-29T10:59:35.150Z,14.70
2019-04-29T11:00:22.101Z,14.80
2019-04-29T11:01:20.508Z,14.60
2019-04-29T11:02:20.471Z,16.00
2019-04-29T11:03:20.710Z,15.30
2019-04-29T11:04:20.449Z,15.20
2019-04-29T11:05:20.438Z,15.40
2019-04-29T11:06:20.483Z,15.00
2019-04-29T11:07:26.576Z,12.80
2019-04-29T11:08:21.406Z,15.60
2019-04-29T11:09:20.395Z,15.90
2019-04-29T11:10:25.159Z,14.70
2019-04-29T11:11:23.200Z,15.60
2019-04-29T11:12:20.364Z,15.40
2019-04-29T11:13:20.351Z,15.50
2019-04-29T11:14:20.344Z,15.20
2019-04-29T11:15:20.334Z,15.70
2019-04-29T11:16:22.962Z,14.80
2019-04-29T11:17:21.329Z,14.70
2019-04-29T11:18:23.278Z,15.00
2019-04-29T11:19:20.287Z,14.80
2019-04-29T11:20:21.575Z,14.10
2019-04-29T11:21:20.264Z,15.30
2019-04-29T11:22:20.274Z,15.00
2019-04-29T11:23:20.244Z,14.80
2019-04-29T11:24:20.233Z,14.60
2019-04-29T11:25:20.223Z,15.20
2019-04-29T11:26:20.211Z,14.50
2019-04-29T11:27:20.221Z,14.00
2019-04-29T11:28:20.193Z,14.00
2019-04-29T11:29:22.027Z,12.90
2019-04-29T11:30:21.166Z,13.30
2019-04-29T11:31:20.159Z,12.70
2019-04-29T11:32:20.184Z,13.10
2019-04-29T11:33:20.135Z,13.30
2019-04-29T11:34:20.133Z,13.10
2019-04-29T11:35:20.122Z,13.20
2019-04-29T11:36:20.107Z,13.20
2019-04-29T11:37:20.124Z,14.00
2019-04-29T11:38:20.083Z,13.40
2019-04-29T11:39:20.073Z,13.50
2019-04-29T11:40:20.495Z,13.50
2019-04-29T11:41:20.867Z,14.60
2019-04-29T11:42:20.079Z,12.70
2019-04-29T11:43:20.030Z,12.40
2019-04-29T11:44:21.842Z,11.70
2019-04-29T11:45:21.019Z,11.10
2019-04-29T11:46:21.146Z,11.10
2019-04-29T11:47:21.017Z,11.20
2019-04-29T11:48:19.975Z,11.60
2019-04-29T11:49:20.020Z,12.10
2019-04-29T11:50:19.954Z,10.40
2019-04-29T11:51:19.944Z,10.50
2019-04-29T11:52:23.747Z,10.70
2019-04-29T11:53:20.918Z,10.80
2019-04-29T11:54:19.916Z,11.10
2019-04-29T11:55:20.163Z,10.90
2019-04-29T11:56:19.886Z,11.40
2019-04-29T11:57:19.968Z,10.70
2019-04-29T11:58:19.864Z,11.10
2019-04-29T11:59:19.957Z,11.20
2019-04-29T12:00:19.844Z,11.30
2019-04-29T12:01:19.834Z,11.40
2019-04-29T12:02:24.293Z,11.60
2019-04-29T12:03:20.843Z,11.70
2019-04-29T12:04:19.800Z,11.50
2019-04-29T12:05:19.793Z,11.80
2019-04-29T12:06:20.746Z,11.60
2019-04-29T12:07:21.259Z,11.50
2019-04-29T12:08:19.773Z,11.40
2019-04-29T12:09:19.769Z,10.90
2019-04-29T12:10:19.734Z,11.10
2019-04-29T12:11:19.739Z,10.70
2019-04-29T12:12:19.714Z,10.60
2019-04-29T12:13:27.139Z,11.00
2019-04-29T12:14:20.703Z,11.10
2019-04-29T12:15:19.683Z,11.60
2019-04-29T12:16:24.015Z,10.80
2019-04-29T12:17:20.664Z,10.90
2019-04-29T12:18:19.679Z,12.10
2019-04-29T12:19:21.263Z,12.00
2019-04-29T12:20:19.650Z,12.20
2019-04-29T12:21:19.614Z,11.30
2019-04-29T12:22:28.417Z,10.20
2019-04-29T12:23:20.614Z,11.00
2019-04-29T12:24:19.620Z,11.50
2019-04-29T12:25:22.949Z,11.00
2019-04-29T12:26:20.564Z,11.10
2019-04-29T12:27:20.133Z,11.10
2019-04-29T12:28:19.787Z,11.00
2019-04-29T12:29:19.736Z,10.80
2019-04-29T12:30:19.532Z,10.20
2019-04-29T12:31:19.508Z,10.60
2019-04-29T12:32:20.908Z,11.10
2019-04-29T12:33:20.515Z,11.20
2019-04-29T12:34:19.477Z,10.70
2019-04-29T12:35:21.519Z,9.50
2019-04-29T12:36:19.457Z,11.00
2019-04-29T12:37:19.457Z,11.30
2019-04-29T12:38:19.437Z,10.50
2019-04-29T12:39:21.593Z,10.60
2019-04-29T12:40:20.441Z,10.50
2019-04-29T12:41:21.073Z,10.30
2019-04-29T12:42:19.390Z,10.80
2019-04-29T12:43:19.379Z,11.30
2019-04-29T12:44:19.386Z,11.70
2019-04-29T12:45:19.883Z,12.50
2019-04-29T12:46:19.348Z,11.20
2019-04-29T12:47:26.197Z,11.40
2019-04-29T12:48:25.113Z,11.40
2019-04-29T12:49:20.333Z,9.70
2019-04-29T12:50:21.807Z,10.40
2019-04-29T12:51:19.293Z,10.60
2019-04-29T12:52:19.309Z,10.20
2019-04-29T12:53:19.272Z,10.50
2019-04-29T12:54:19.278Z,11.10
2019-04-29T12:55:24.933Z,10.40
2019-04-29T12:56:20.243Z,10.20
2019-04-29T12:57:23.676Z,10.60
2019-04-29T12:58:24.193Z,10.10
2019-04-29T12:59:20.299Z,10.40
2019-04-29T13:00:19.197Z,9.20
2019-04-29T13:01:19.192Z,10.00
2019-04-29T13:02:19.872Z,9.50
2019-04-29T13:03:26.232Z,10.20
2019-04-29T13:04:19.320Z,10.60
2019-04-29T13:05:26.713Z,10.30
2019-04-29T13:06:23.714Z,9.80
2019-04-29T13:07:20.118Z,11.10
2019-04-29T13:08:26.708Z,9.70
2019-04-29T13:09:19.174Z,10.40
2019-04-29T13:10:26.639Z,10.90
2019-04-29T13:11:20.964Z,11.30
2019-04-29T13:13:28.824Z,10.70
2019-04-29T13:14:33.217Z,10.80
2019-04-29T13:15:29.788Z,9.70
2019-04-29T13:16:36.368Z,10.50
2019-04-29T13:17:30.485Z,9.50
2019-04-29T13:18:28.761Z,9.60